createdAt,value
2018-06-11T00:02:04.214Z,73.20
2018-06-11T00:04:31.548Z,73.50
2018-06-11T00:06:58.946Z,73.60
2018-06-11T00:09:26.259Z,73.90
2018-06-11T00:11:53.609Z,74.30
2018-06-11T00:14:20.950Z,74.40
2018-06-11T00:16:48.283Z,74.40
2018-06-11T00:19:15.611Z,74.50
2018-06-11T00:24:10.176Z,74.60
2018-06-11T00:26:37.519Z,74.50
2018-06-11T00:29:04.892Z,74.30
2018-06-11T00:31:32.286Z,74.40
2018-06-11T00:33:59.589Z,74.90
2018-06-11T00:36:26.899Z,74.80
2018-06-11T00:38:54.219Z,75.00
2018-06-11T00:41:21.563Z,75.10
2018-06-11T00:43:48.903Z,75.20
2018-06-11T00:46:16.245Z,75.30
2018-06-11T00:48:43.584Z,75.40
2018-06-11T00:51:10.903Z,75.20
2018-06-11T00:53:38.248Z,75.20
2018-06-11T00:56:08.243Z,75.20
2018-06-11T00:58:35.611Z,75.20
2018-06-11T01:01:04.405Z,75.20
2018-06-11T01:03:31.717Z,75.50
2018-06-11T01:05:59.066Z,75.60
2018-06-11T01:08:26.374Z,75.40
2018-06-11T01:10:53.713Z,75.50
2018-06-11T01:13:21.028Z,75.30
2018-06-11T01:15:48.352Z,75.40
2018-06-11T01:18:15.701Z,75.50
2018-06-11T01:20:43.049Z,75.90
2018-06-11T01:23:10.386Z,76.00
2018-06-11T01:25:37.736Z,76.10
2018-06-11T01:28:05.201Z,76.00
2018-06-11T01:30:32.552Z,76.10
2018-06-11T01:32:59.868Z,76.20
2018-06-11T01:35:27.269Z,76.30
2018-06-11T01:37:54.607Z,76.40
2018-06-11T01:40:21.952Z,76.40
2018-06-11T01:42:49.267Z,76.30
2018-06-11T01:45:16.612Z,76.30
2018-06-11T01:47:43.937Z,76.30
2018-06-11T01:50:11.361Z,76.30
2018-06-11T01:52:38.659Z,76.30
2018-06-11T01:55:06.019Z,76.40
2018-06-11T01:57:33.461Z,76.50
2018-06-11T02:00:00.806Z,76.80
2018-06-11T02:02:28.165Z,77.10
2018-06-11T02:04:55.493Z,77.10
2018-06-11T02:07:22.850Z,77.20
2018-06-11T02:09:50.201Z,77.40
2018-06-11T02:12:17.699Z,77.70
2018-06-11T02:14:45.038Z,77.80
2018-06-11T02:17:12.392Z,77.60
2018-06-11T02:19:39.742Z,77.50
2018-06-11T02:22:07.103Z,77.40
2018-06-11T02:24:34.490Z,77.30
2018-06-11T02:27:01.849Z,77.60
2018-06-11T02:29:29.183Z,77.60
2018-06-11T02:31:56.604Z,77.70
2018-06-11T02:34:23.925Z,78.30
2018-06-11T02:36:51.306Z,78.40
2018-06-11T02:39:18.623Z,78.50
2018-06-11T02:41:45.973Z,78.40
2018-06-11T02:46:40.663Z,78.20
2018-06-11T02:49:08.051Z,78.30
2018-06-11T02:51:35.412Z,78.40
2018-06-11T02:54:02.736Z,78.20
2018-06-11T02:56:30.067Z,78.10
2018-06-11T02:58:57.442Z,78.40
2018-06-11T03:01:24.807Z,78.60
2018-06-11T03:03:52.120Z,79.10
2018-06-11T03:06:19.496Z,78.70
2018-06-11T03:08:46.771Z,78.60
2018-06-11T03:11:14.224Z,78.60
2018-06-11T03:13:41.532Z,78.70
2018-06-11T03:16:08.848Z,78.80
2018-06-11T03:18:36.163Z,78.90
2018-06-11T03:21:03.496Z,78.80
2018-06-11T03:23:30.799Z,78.70
2018-06-11T03:25:58.103Z,78.70
2018-06-11T03:28:25.398Z,78.60
2018-06-11T03:30:52.723Z,78.30
2018-06-11T03:33:20.022Z,78.20
2018-06-11T03:35:47.370Z,78.00
2018-06-11T03:38:14.719Z,78.10
2018-06-11T03:40:42.052Z,78.10
2018-06-11T03:43:09.359Z,78.10
2018-06-11T03:45:36.666Z,77.90
2018-06-11T03:48:03.975Z,77.80
2018-06-11T03:50:31.286Z,77.80
2018-06-11T03:52:58.631Z,77.80
2018-06-11T03:55:25.926Z,77.70
2018-06-11T03:57:53.239Z,77.80
2018-06-11T04:00:20.587Z,77.70
2018-06-11T04:02:47.911Z,77.70
2018-06-11T04:10:09.578Z,77.60
2018-06-11T04:12:36.895Z,77.50
2018-06-11T04:15:04.215Z,77.30
2018-06-11T04:17:31.543Z,77.50
2018-06-11T04:19:58.998Z,77.20
2018-06-11T04:24:53.505Z,76.90
2018-06-11T04:27:20.913Z,76.80
2018-06-11T04:29:48.247Z,76.90
2018-06-11T04:32:15.576Z,76.90
2018-06-11T04:34:42.932Z,76.80
2018-06-11T04:37:10.249Z,76.80
2018-06-11T04:39:37.615Z,76.00
2018-06-11T04:42:04.909Z,76.20
2018-06-11T04:46:59.566Z,76.10
2018-06-11T04:49:26.890Z,76.00
2018-06-11T04:51:54.227Z,76.10
2018-06-11T04:54:21.721Z,76.30
2018-06-11T04:56:49.054Z,76.40
2018-06-11T04:59:16.383Z,76.20
2018-06-11T05:04:10.891Z,75.80
2018-06-11T05:06:38.233Z,75.40
2018-06-11T05:09:06.069Z,75.30
2018-06-11T05:14:00.571Z,74.80
2018-06-11T05:16:27.904Z,74.80
2018-06-11T05:18:55.208Z,74.80
2018-06-11T05:21:22.598Z,74.90
2018-06-11T05:23:49.997Z,75.10
2018-06-11T05:26:17.325Z,74.80
2018-06-11T05:28:44.744Z,74.30
2018-06-11T05:31:12.040Z,73.70
2018-06-11T05:33:39.391Z,74.10
2018-06-11T05:36:06.740Z,74.70
2018-06-11T05:38:34.170Z,74.80
2018-06-11T05:41:01.517Z,74.70
2018-06-11T05:43:28.858Z,74.50
2018-06-11T05:45:56.204Z,74.50
2018-06-11T05:48:23.570Z,74.60
2018-06-11T05:50:50.923Z,74.60
2018-06-11T05:53:18.290Z,74.40
2018-06-11T05:55:45.687Z,74.60
2018-06-11T05:58:13.017Z,74.60
2018-06-11T06:05:35.087Z,73.00
2018-06-11T06:08:02.443Z,72.90
2018-06-11T06:10:29.919Z,73.30
2018-06-11T06:12:57.371Z,72.60
2018-06-11T06:15:24.729Z,72.70
2018-06-11T06:17:52.073Z,73.00
2018-06-11T06:20:19.377Z,73.20
2018-06-11T06:22:46.771Z,73.20
2018-06-11T06:25:14.221Z,73.20
2018-06-11T06:27:41.585Z,73.60
2018-06-11T06:30:08.939Z,73.40
2018-06-11T06:32:36.311Z,73.50
2018-06-11T06:35:03.670Z,73.10
2018-06-11T06:37:31.015Z,72.20
2018-06-11T06:39:58.416Z,72.20
2018-06-11T06:42:25.751Z,71.70
2018-06-11T06:44:53.171Z,71.70
2018-06-11T06:47:20.612Z,72.30
2018-06-11T06:49:47.989Z,72.60
2018-06-11T06:52:15.322Z,72.20
2018-06-11T06:54:42.686Z,71.70
2018-06-11T06:57:10.058Z,71.00
2018-06-11T06:59:37.417Z,70.70
2018-06-11T07:02:04.775Z,70.00
2018-06-11T07:04:32.221Z,71.20
2018-06-11T07:06:59.574Z,71.10
2018-06-11T07:09:26.972Z,70.60
2018-06-11T07:11:54.343Z,70.80
2018-06-11T07:14:21.679Z,71.00
2018-06-11T07:16:49.007Z,70.90
2018-06-11T07:19:16.356Z,70.80
2018-06-11T07:21:43.654Z,70.50
2018-06-11T07:24:10.967Z,70.30
2018-06-11T07:26:38.328Z,70.50
2018-06-11T07:29:05.680Z,70.80
2018-06-11T07:31:33.030Z,71.00
2018-06-11T07:34:00.358Z,70.80
2018-06-11T07:36:27.730Z,70.30
2018-06-11T07:38:55.034Z,69.60
2018-06-11T07:43:49.568Z,69.40
2018-06-11T07:46:16.951Z,68.70
2018-06-11T07:48:44.266Z,68.20
2018-06-11T07:51:11.597Z,67.00
2018-06-11T07:53:38.931Z,66.90
2018-06-11T07:56:06.275Z,66.60
2018-06-11T07:58:33.693Z,66.60
2018-06-11T08:01:01.078Z,66.80
2018-06-11T08:03:28.371Z,67.20
2018-06-11T08:05:55.703Z,67.20
2018-06-11T08:08:23.025Z,67.50
2018-06-11T08:10:50.418Z,66.80
2018-06-11T08:13:17.751Z,67.00
2018-06-11T08:15:45.201Z,67.10
2018-06-11T08:18:12.512Z,67.40
2018-06-11T08:20:39.842Z,67.40
2018-06-11T08:23:07.190Z,68.20
2018-06-11T08:25:34.564Z,68.80
2018-06-11T08:28:01.871Z,67.70
2018-06-11T08:30:29.203Z,67.60
2018-06-11T08:32:56.552Z,67.10
2018-06-11T08:37:51.059Z,67.70
2018-06-11T08:40:18.379Z,66.90
2018-06-11T08:42:45.683Z,66.80
2018-06-11T08:45:13.034Z,67.00
2018-06-11T08:47:40.343Z,66.90
2018-06-11T08:50:07.688Z,67.10
2018-06-11T08:52:35.055Z,66.80
2018-06-11T08:55:02.409Z,66.70
2018-06-11T08:57:29.761Z,66.60
2018-06-11T08:59:57.091Z,66.60
2018-06-11T09:02:24.379Z,67.60
2018-06-11T09:04:51.714Z,68.50
2018-06-11T09:09:46.345Z,67.90
2018-06-11T09:14:40.843Z,69.60
2018-06-11T09:17:08.168Z,69.90
2018-06-11T09:19:35.533Z,70.20
2018-06-11T09:22:02.918Z,70.10
2018-06-11T09:24:30.256Z,69.10
2018-06-11T09:26:57.568Z,68.60
2018-06-11T09:29:24.908Z,67.90
2018-06-11T09:31:52.218Z,67.50
2018-06-11T09:34:19.552Z,67.10
2018-06-11T09:36:46.871Z,67.00
2018-06-11T09:39:14.204Z,66.70
2018-06-11T09:41:41.538Z,65.50
2018-06-11T09:44:08.907Z,66.10
2018-06-11T09:46:36.167Z,66.80
2018-06-11T09:49:03.519Z,68.20
2018-06-11T09:51:30.864Z,68.70
2018-06-11T09:53:58.231Z,69.30
2018-06-11T09:56:25.711Z,68.20
2018-06-11T09:58:53.027Z,67.70
2018-06-11T10:01:20.319Z,66.80
2018-06-11T10:03:47.673Z,65.60
2018-06-11T10:06:15.017Z,66.60
2018-06-11T10:11:09.483Z,66.80
2018-06-11T10:13:36.807Z,66.90
2018-06-11T10:16:04.203Z,66.80
2018-06-11T10:18:31.498Z,66.90
2018-06-11T10:20:58.835Z,67.00
2018-06-11T10:23:26.137Z,67.10
2018-06-11T10:25:53.445Z,67.00
2018-06-11T10:28:20.792Z,67.30
2018-06-11T10:30:48.185Z,66.50
2018-06-11T10:33:15.515Z,67.00
2018-06-11T10:35:42.859Z,66.90
2018-06-11T10:38:10.197Z,66.60
2018-06-11T10:40:37.523Z,66.90
2018-06-11T10:43:05.285Z,66.10
2018-06-11T10:45:32.623Z,67.20
2018-06-11T10:47:59.945Z,67.00
2018-06-11T10:50:27.307Z,67.20
2018-06-11T10:52:54.638Z,67.20
2018-06-11T10:55:22.113Z,68.50
2018-06-11T10:57:49.419Z,68.10
2018-06-11T11:00:16.743Z,68.00
2018-06-11T11:02:44.107Z,66.90
2018-06-11T11:05:11.486Z,67.10
2018-06-11T11:07:38.796Z,67.20
2018-06-11T11:10:06.252Z,66.60
2018-06-11T11:12:33.665Z,66.60
2018-06-11T11:15:00.954Z,66.30
2018-06-11T11:17:28.254Z,66.70
2018-06-11T11:19:55.571Z,67.40
2018-06-11T11:22:22.945Z,67.20
2018-06-11T11:24:50.240Z,67.30
2018-06-11T11:27:17.588Z,67.30
2018-06-11T11:29:44.906Z,67.10
2018-06-11T11:32:12.247Z,68.00
2018-06-11T11:34:39.715Z,67.60
2018-06-11T11:37:07.082Z,67.50
2018-06-11T11:39:34.435Z,67.20
2018-06-11T11:42:01.746Z,67.40
2018-06-11T11:44:29.069Z,67.80
2018-06-11T11:46:56.392Z,66.60
2018-06-11T11:49:23.935Z,66.60
2018-06-11T11:51:51.259Z,66.20
2018-06-11T11:54:18.768Z,66.00
2018-06-11T11:56:46.112Z,65.70
2018-06-11T12:01:40.786Z,66.20
2018-06-11T12:04:08.085Z,66.40
2018-06-11T12:06:35.386Z,66.60
2018-06-11T12:09:04.538Z,67.00
2018-06-11T12:11:31.923Z,67.50
2018-06-11T12:13:59.322Z,69.00
2018-06-11T12:16:26.671Z,68.90
2018-06-11T12:18:53.993Z,69.00
2018-06-11T12:21:21.362Z,69.80
2018-06-11T12:23:48.687Z,72.40
2018-06-11T12:26:15.996Z,73.10
2018-06-11T12:28:43.325Z,73.70
2018-06-11T12:31:10.646Z,75.00
2018-06-11T12:33:37.977Z,75.50
2018-06-11T12:36:05.348Z,75.80
2018-06-11T12:38:32.653Z,76.70
2018-06-11T12:40:59.973Z,78.60
2018-06-11T12:43:27.258Z,80.20
2018-06-11T12:45:54.593Z,79.90
2018-06-11T12:48:21.932Z,81.80
2018-06-11T12:50:49.277Z,83.10
2018-06-11T12:53:16.706Z,82.10
2018-06-11T12:55:44.024Z,81.90
2018-06-11T12:58:11.485Z,81.50
2018-06-11T13:00:38.770Z,80.90
2018-06-11T13:03:06.121Z,81.20
2018-06-11T13:05:33.419Z,80.50
2018-06-11T13:08:00.727Z,79.90
2018-06-11T13:10:28.050Z,79.70
2018-06-11T13:12:55.387Z,79.40
2018-06-11T13:15:22.715Z,80.10
2018-06-11T13:17:50.342Z,80.50
2018-06-11T13:20:17.687Z,81.00
2018-06-11T13:22:45.269Z,81.20
2018-06-11T13:27:39.767Z,81.10
2018-06-11T13:30:07.092Z,80.50
2018-06-11T13:32:34.473Z,79.20
2018-06-11T13:35:01.784Z,80.20
2018-06-11T13:37:29.134Z,79.80
2018-06-11T13:39:56.502Z,80.00
2018-06-11T13:42:23.863Z,80.10
2018-06-11T13:44:51.231Z,80.30
2018-06-11T13:47:18.547Z,80.00
2018-06-11T13:49:45.940Z,80.20
2018-06-11T13:52:13.255Z,80.90
2018-06-11T13:54:40.771Z,80.90
2018-06-11T13:57:08.075Z,81.50
2018-06-11T13:59:35.445Z,81.10
2018-06-11T14:02:02.827Z,81.20
2018-06-11T14:04:30.178Z,80.60
2018-06-11T14:06:57.515Z,80.60
2018-06-11T14:09:24.871Z,81.40
2018-06-11T14:11:52.228Z,81.10
2018-06-11T14:14:19.625Z,81.90
2018-06-11T14:16:46.960Z,82.70
2018-06-11T14:19:14.296Z,82.50
2018-06-11T14:21:41.587Z,81.60
2018-06-11T14:24:08.891Z,82.30
2018-06-11T14:26:36.223Z,82.00
2018-06-11T14:29:03.558Z,82.10
2018-06-11T14:31:30.950Z,82.30
2018-06-11T14:33:58.281Z,83.70
2018-06-11T14:36:25.607Z,83.90
2018-06-11T14:38:52.940Z,83.80
2018-06-11T14:41:20.378Z,84.40
2018-06-11T14:43:47.714Z,84.60
2018-06-11T14:46:15.064Z,85.00
2018-06-11T14:48:42.379Z,85.50
2018-06-11T14:51:09.829Z,86.10
2018-06-11T14:58:31.602Z,87.30
2018-06-11T15:00:59.018Z,88.10
2018-06-11T15:03:26.335Z,88.70
2018-06-11T15:05:53.667Z,88.90
2018-06-11T15:08:21.138Z,88.40
2018-06-11T15:10:48.443Z,89.50
2018-06-11T15:13:15.783Z,89.80
2018-06-11T15:15:43.168Z,89.90
2018-06-11T15:18:10.479Z,90.10
2018-06-11T15:20:37.808Z,90.10
2018-06-11T15:23:05.099Z,90.20
2018-06-11T15:25:32.445Z,90.20
2018-06-11T15:27:59.992Z,90.60
2018-06-11T15:30:27.340Z,90.20
2018-06-11T15:32:54.685Z,89.70
2018-06-11T15:35:21.998Z,90.70
2018-06-11T15:37:49.311Z,90.70
2018-06-11T15:40:16.687Z,90.30
2018-06-11T15:42:44.007Z,90.80
2018-06-11T15:45:11.319Z,90.80
2018-06-11T15:47:38.672Z,90.40
2018-06-11T15:50:06.049Z,90.60
2018-06-11T15:52:33.323Z,90.70
2018-06-11T15:57:27.853Z,90.70
2018-06-11T15:59:55.163Z,90.80
2018-06-11T16:02:22.516Z,90.60
2018-06-11T16:04:49.843Z,90.70
2018-06-11T16:07:17.227Z,90.80
2018-06-11T16:09:44.552Z,90.60
2018-06-11T16:12:11.867Z,90.10
2018-06-11T16:14:39.195Z,90.30
2018-06-11T16:17:06.531Z,89.80
2018-06-11T16:19:34.018Z,90.60
2018-06-11T16:22:01.315Z,90.30
2018-06-11T16:24:28.682Z,90.10
2018-06-11T16:26:56.075Z,90.30
2018-06-11T16:29:23.414Z,89.90
2018-06-11T16:31:50.744Z,90.00
2018-06-11T16:34:18.155Z,90.30
2018-06-11T16:36:45.507Z,90.30
2018-06-11T16:39:12.895Z,90.60
2018-06-11T16:41:40.199Z,90.50
2018-06-11T16:44:07.507Z,90.20
2018-06-11T16:46:34.822Z,90.10
2018-06-11T16:49:02.184Z,89.50
2018-06-11T16:51:29.451Z,87.90
2018-06-11T16:53:56.763Z,88.30
2018-06-11T16:56:24.095Z,88.60
2018-06-11T16:58:51.406Z,89.20
2018-06-11T17:01:18.724Z,89.30
2018-06-11T17:03:46.082Z,89.30
2018-06-11T17:06:13.396Z,88.30
2018-06-11T17:08:41.616Z,88.50
2018-06-11T17:11:08.936Z,87.60
2018-06-11T17:13:36.260Z,88.10
2018-06-11T17:16:03.562Z,89.10
2018-06-11T17:18:30.907Z,89.20
2018-06-11T17:20:58.220Z,89.10
2018-06-11T17:23:25.534Z,89.20
2018-06-11T17:25:52.969Z,89.60
2018-06-11T17:28:20.337Z,89.80
2018-06-11T17:30:47.730Z,89.40
2018-06-11T17:33:15.107Z,89.00
2018-06-11T17:35:42.443Z,87.90
2018-06-11T17:38:10.099Z,88.50
2018-06-11T17:40:37.411Z,88.80
2018-06-11T17:43:04.975Z,88.10
2018-06-11T17:45:32.319Z,88.40
2018-06-11T17:47:59.635Z,88.10
2018-06-11T17:50:26.988Z,88.10
2018-06-11T17:52:54.343Z,87.80
2018-06-11T17:55:21.675Z,87.80
2018-06-11T17:57:49.077Z,87.70
2018-06-11T18:00:16.672Z,88.00
2018-06-11T18:02:43.995Z,88.30
2018-06-11T18:07:38.591Z,87.90
2018-06-11T18:10:05.964Z,88.40
2018-06-11T18:12:33.311Z,88.50
2018-06-11T18:15:00.702Z,88.60
2018-06-11T18:17:28.056Z,88.60
2018-06-11T18:19:55.567Z,88.10
2018-06-11T18:22:22.911Z,87.80
2018-06-11T18:24:50.275Z,88.10
2018-06-11T18:27:17.706Z,87.80
2018-06-11T18:29:45.583Z,87.80
2018-06-11T18:32:13.458Z,88.10
2018-06-11T18:34:40.903Z,88.10
2018-06-11T18:37:08.435Z,88.20
2018-06-11T18:39:36.594Z,88.50
2018-06-11T18:42:04.060Z,88.30
2018-06-11T18:44:31.399Z,88.90
2018-06-11T18:46:58.715Z,88.80
2018-06-11T18:49:26.622Z,88.80
2018-06-11T18:51:53.964Z,88.40
2018-06-11T18:54:21.321Z,89.10
2018-06-11T18:56:48.651Z,88.20
2018-06-11T18:59:15.993Z,88.30
2018-06-11T19:01:44.490Z,88.50
2018-06-11T19:04:12.609Z,88.60
2018-06-11T19:06:40.386Z,89.30
2018-06-11T19:09:08.610Z,89.60
2018-06-11T19:11:36.084Z,88.20
2018-06-11T19:14:03.472Z,88.40
2018-06-11T19:16:30.810Z,88.90
2018-06-11T19:18:58.144Z,88.80
2018-06-11T19:21:25.506Z,89.20
2018-06-11T19:23:52.836Z,89.00
2018-06-11T19:26:20.161Z,89.10
2018-06-11T19:28:47.522Z,88.50
2018-06-11T19:31:14.911Z,88.70
2018-06-11T19:33:42.250Z,88.10
2018-06-11T19:36:09.665Z,89.10
2018-06-11T19:38:37.023Z,88.70
2018-06-11T19:41:04.384Z,88.50
2018-06-11T19:43:31.731Z,88.40
2018-06-11T19:45:59.137Z,88.50
2018-06-11T19:48:26.826Z,88.20
2018-06-11T19:50:54.286Z,87.60
2018-06-11T19:53:21.621Z,88.30
2018-06-11T19:55:49.546Z,88.40
2018-06-11T19:58:16.911Z,87.90
2018-06-11T20:00:44.487Z,87.30
2018-06-11T20:03:11.843Z,86.90
2018-06-11T20:05:39.219Z,87.40
2018-06-11T20:08:06.568Z,87.40
2018-06-11T20:13:01.133Z,87.30
2018-06-11T20:15:28.456Z,86.90
2018-06-11T20:17:55.851Z,86.80
2018-06-11T20:20:23.437Z,87.20
2018-06-11T20:22:50.998Z,88.10
2018-06-11T20:25:18.726Z,87.40
2018-06-11T20:27:46.081Z,87.00
2018-06-11T20:30:13.534Z,85.90
2018-06-11T20:32:41.096Z,86.50
2018-06-11T20:35:08.553Z,86.70
2018-06-11T20:37:36.299Z,86.90
2018-06-11T20:40:03.872Z,86.60
2018-06-11T20:42:31.238Z,87.20
2018-06-11T20:44:59.151Z,87.10
2018-06-11T20:47:26.487Z,86.50
2018-06-11T20:49:53.843Z,86.70
2018-06-11T20:52:21.276Z,87.30
2018-06-11T20:54:48.877Z,86.60
2018-06-11T20:57:16.290Z,87.10
2018-06-11T20:59:43.650Z,86.90
2018-06-11T21:02:11.536Z,87.40
2018-06-11T21:04:39.263Z,86.90
2018-06-11T21:07:06.635Z,87.20
2018-06-11T21:09:33.985Z,87.10
2018-06-11T21:12:01.968Z,87.10
2018-06-11T21:14:29.918Z,87.10
2018-06-11T21:16:57.312Z,87.10
2018-06-11T21:19:25.307Z,85.60
2018-06-11T21:21:52.929Z,86.40
2018-06-11T21:24:20.310Z,86.50
2018-06-11T21:26:47.984Z,86.20
2018-06-11T21:29:16.041Z,85.80
2018-06-11T21:31:43.556Z,86.60
2018-06-11T21:34:10.894Z,86.00
2018-06-11T21:36:38.245Z,85.50
2018-06-11T21:39:07.243Z,86.30
2018-06-11T21:41:34.706Z,85.70
2018-06-11T21:44:02.191Z,85.10
2018-06-11T21:46:29.912Z,85.50
2018-06-11T21:48:57.247Z,85.40
2018-06-11T21:51:24.603Z,85.50
2018-06-11T21:53:52.032Z,84.80
2018-06-11T21:56:19.384Z,84.70
2018-06-11T21:58:46.741Z,83.80
2018-06-11T22:01:14.028Z,84.80
2018-06-11T22:03:41.416Z,85.30
2018-06-11T22:06:08.650Z,85.90
2018-06-11T22:08:36.030Z,86.20
2018-06-11T22:11:03.363Z,86.30
2018-06-11T22:13:30.687Z,87.00
2018-06-11T22:15:58.122Z,87.60
2018-06-11T22:18:25.499Z,87.90
2018-06-11T22:20:52.839Z,88.40
2018-06-11T22:23:20.168Z,88.10
2018-06-11T22:25:47.474Z,87.90
2018-06-11T22:28:14.818Z,88.40
2018-06-11T22:30:42.236Z,88.60
2018-06-11T22:33:09.463Z,88.20
2018-06-11T22:35:36.779Z,88.60
2018-06-11T22:38:04.086Z,88.80
2018-06-11T22:40:31.407Z,88.90
2018-06-11T22:42:59.052Z,88.90
2018-06-11T22:45:26.403Z,89.70
2018-06-11T22:47:53.691Z,89.40
2018-06-11T22:50:21.009Z,89.70
2018-06-11T22:52:48.340Z,89.70
2018-06-11T22:55:16.028Z,89.90
2018-06-11T22:57:43.372Z,89.70
2018-06-11T23:00:10.703Z,89.90
2018-06-11T23:02:38.023Z,89.80
2018-06-11T23:05:05.327Z,90.00
2018-06-11T23:07:32.677Z,89.90
2018-06-11T23:12:27.182Z,90.40
2018-06-11T23:14:54.497Z,90.30
2018-06-11T23:17:21.818Z,90.10
2018-06-11T23:19:49.148Z,89.60
2018-06-11T23:22:16.494Z,89.70
2018-06-11T23:24:43.799Z,89.90
2018-06-11T23:27:11.122Z,89.90
2018-06-11T23:29:38.441Z,90.20
2018-06-11T23:32:05.760Z,89.60
2018-06-11T23:34:33.108Z,89.30
2018-06-11T23:37:00.446Z,89.40
2018-06-11T23:39:27.791Z,90.20
2018-06-11T23:41:55.092Z,90.10
2018-06-11T23:44:22.417Z,89.70
2018-06-11T23:46:49.767Z,88.90
2018-06-11T23:49:17.110Z,89.10
2018-06-11T23:51:44.412Z,89.20
2018-06-11T23:54:11.735Z,89.30
2018-06-11T23:56:39.211Z,89.60
2018-06-11T23:59:06.767Z,90.00
